sensor_id;sensor_type;location;lat;lon;timestamp;temperature;humidity
35463;DHT22;21578;47.892;9.970;2023-02-15T00:00:10;1.10;96.60
35463;DHT22;21578;47.892;9.970;2023-02-15T00:04:57;1.00;96.60
35463;DHT22;21578;47.892;9.970;2023-02-15T00:09:45;0.90;96.60
35463;DHT22;21578;47.892;9.970;2023-02-15T00:14:32;0.90;96.60
35463;DHT22;21578;47.892;9.970;2023-02-15T00:19:21;0.80;96.60
35463;DHT22;21578;47.892;9.970;2023-02-15T00:24:10;0.80;96.60
35463;DHT22;21578;47.892;9.970;2023-02-15T00:28:58;0.80;96.60
35463;DHT22;21578;47.892;9.970;2023-02-15T00:33:45;0.80;96.60
35463;DHT22;21578;47.892;9.970;2023-02-15T00:38:34;0.70;96.60
35463;DHT22;21578;47.892;9.970;2023-02-15T00:43:22;0.70;96.60
35463;DHT22;21578;47.892;9.970;2023-02-15T00:48:09;0.70;96.60
35463;DHT22;21578;47.892;9.970;2023-02-15T00:52:56;0.60;96.60
35463;DHT22;21578;47.892;9.970;2023-02-15T00:57:44;0.60;96.60
35463;DHT22;21578;47.892;9.970;2023-02-15T07:10:39;-1.30;96.60
35463;DHT22;21578;47.892;9.970;2023-02-15T07:15:29;-1.30;96.60
35463;DHT22;21578;47.892;9.970;2023-02-15T07:20:18;-1.20;96.60
35463;DHT22;21578;47.892;9.970;2023-02-15T07:25:07;-1.10;96.60
35463;DHT22;21578;47.892;9.970;2023-02-15T07:29:55;-1.00;96.60
35463;DHT22;21578;47.892;9.970;2023-02-15T07:34:42;-0.80;96.60
35463;DHT22;21578;47.892;9.970;2023-02-15T07:39:29;-0.60;96.60
35463;DHT22;21578;47.892;9.970;2023-02-15T07:44:16;-0.60;96.60
35463;DHT22;21578;47.892;9.970;2023-02-15T07:49:05;-0.50;96.60
35463;DHT22;21578;47.892;9.970;2023-02-15T07:53:52;-0.60;96.60
35463;DHT22;21578;47.892;9.970;2023-02-15T07:58:39;-0.60;96.60
35463;DHT22;21578;47.892;9.970;2023-02-15T08:03:38;-0.50;96.60
35463;DHT22;21578;47.892;9.970;2023-02-15T08:08:26;-0.50;96.60
35463;DHT22;21578;47.892;9.970;2023-02-15T08:13:16;-0.30;96.60
35463;DHT22;21578;47.892;9.970;2023-02-15T08:18:03;0.00;96.60
35463;DHT22;21578;47.892;9.970;2023-02-15T08:22:50;0.20;96.60
35463;DHT22;21578;47.892;9.970;2023-02-15T08:27:38;0.40;96.60
35463;DHT22;21578;47.892;9.970;2023-02-15T08:32:25;0.60;96.60
35463;DHT22;21578;47.892;9.970;2023-02-15T08:37:12;0.90;96.60
35463;DHT22;21578;47.892;9.970;2023-02-15T08:41:59;1.20;96.60
35463;DHT22;21578;47.892;9.970;2023-02-15T08:46:48;1.50;96.60
35463;DHT22;21578;47.892;9.970;2023-02-15T08:51:36;1.70;96.60
35463;DHT22;21578;47.892;9.970;2023-02-15T08:56:25;2.20;96.60
35463;DHT22;21578;47.892;9.970;2023-02-15T09:01:15;2.40;96.60
35463;DHT22;21578;47.892;9.970;2023-02-15T09:06:05;2.60;96.60
35463;DHT22;21578;47.892;9.970;2023-02-15T09:10:52;2.80;96.60
35463;DHT22;21578;47.892;9.970;2023-02-15T09:15:39;2.90;96.60
35463;DHT22;21578;47.892;9.970;2023-02-15T09:20:26;3.20;95.70
35463;DHT22;21578;47.892;9.970;2023-02-15T09:25:15;3.40;95.80
35463;DHT22;21578;47.892;9.970;2023-02-15T09:30:02;3.60;96.30
35463;DHT22;21578;47.892;9.970;2023-02-15T09:34:48;3.70;96.40
35463;DHT22;21578;47.892;9.970;2023-02-15T09:39:37;3.90;96.20
35463;DHT22;21578;47.892;9.970;2023-02-15T09:44:38;4.00;96.10
35463;DHT22;21578;47.892;9.970;2023-02-15T09:49:33;4.20;94.70
35463;DHT22;21578;47.892;9.970;2023-02-15T09:54:33;4.40;92.00
35463;DHT22;21578;47.892;9.970;2023-02-15T09:59:31;4.60;92.20
35463;DHT22;21578;47.892;9.970;2023-02-15T10:04:33;4.80;92.30
35463;DHT22;21578;47.892;9.970;2023-02-15T10:09:33;5.20;89.50
35463;DHT22;21578;47.892;9.970;2023-02-15T10:19:40;5.60;90.30
35463;DHT22;21578;47.892;9.970;2023-02-15T10:24:49;5.80;89.60
35463;DHT22;21578;47.892;9.970;2023-02-15T10:29:48;5.90;89.70
35463;DHT22;21578;47.892;9.970;2023-02-15T10:34:43;6.10;89.20
35463;DHT22;21578;47.892;9.970;2023-02-15T10:39:41;6.30;89.00
35463;DHT22;21578;47.892;9.970;2023-02-15T10:44:38;6.50;88.00
35463;DHT22;21578;47.892;9.970;2023-02-15T10:49:37;6.80;87.30
35463;DHT22;21578;47.892;9.970;2023-02-15T10:54:35;7.10;86.10
35463;DHT22;21578;47.892;9.970;2023-02-15T10:59:34;7.20;86.80
35463;DHT22;21578;47.892;9.970;2023-02-15T11:04:44;7.40;85.70
35463;DHT22;21578;47.892;9.970;2023-02-15T11:09:38;7.60;85.40
35463;DHT22;21578;47.892;9.970;2023-02-15T11:14:35;7.80;84.70
35463;DHT22;21578;47.892;9.970;2023-02-15T11:19:28;8.00;84.40
35463;DHT22;21578;47.892;9.970;2023-02-15T11:24:19;8.20;83.50
35463;DHT22;21578;47.892;9.970;2023-02-15T11:29:12;8.30;82.80
35463;DHT22;21578;47.892;9.970;2023-02-15T11:34:04;8.50;82.70
35463;DHT22;21578;47.892;9.970;2023-02-15T11:38:57;8.80;79.90
35463;DHT22;21578;47.892;9.970;2023-02-15T11:43:49;9.10;78.20
35463;DHT22;21578;47.892;9.970;2023-02-15T11:48:40;9.30;77.80
35463;DHT22;21578;47.892;9.970;2023-02-15T11:53:30;9.50;77.70
35463;DHT22;21578;47.892;9.970;2023-02-15T11:58:25;9.70;78.30
35463;DHT22;21578;47.892;9.970;2023-02-15T12:03:19;9.80;75.40
35463;DHT22;21578;47.892;9.970;2023-02-15T12:08:15;10.00;76.50
35463;DHT22;21578;47.892;9.970;2023-02-15T12:13:11;10.20;74.90
35463;DHT22;21578;47.892;9.970;2023-02-15T12:17:59;10.30;75.30
35463;DHT22;21578;47.892;9.970;2023-02-15T12:22:48;10.40;73.70
35463;DHT22;21578;47.892;9.970;2023-02-15T12:27:42;10.60;74.30
35463;DHT22;21578;47.892;9.970;2023-02-15T12:32:33;10.90;73.20
35463;DHT22;21578;47.892;9.970;2023-02-15T12:37:23;11.10;72.70
35463;DHT22;21578;47.892;9.970;2023-02-15T12:42:15;11.20;72.30
35463;DHT22;21578;47.892;9.970;2023-02-15T12:47:05;11.40;70.40
35463;DHT22;21578;47.892;9.970;2023-02-15T12:51:54;11.40;69.00
35463;DHT22;21578;47.892;9.970;2023-02-15T12:56:41;11.50;69.30
35463;DHT22;21578;47.892;9.970;2023-02-15T13:01:32;11.50;70.10
35463;DHT22;21578;47.892;9.970;2023-02-15T13:06:21;11.60;70.90
35463;DHT22;21578;47.892;9.970;2023-02-15T13:11:09;11.70;70.30
35463;DHT22;21578;47.892;9.970;2023-02-15T13:15:59;11.70;70.70
35463;DHT22;21578;47.892;9.970;2023-02-15T13:20:51;11.70;70.60
35463;DHT22;21578;47.892;9.970;2023-02-15T13:25:45;11.90;71.70
35463;DHT22;21578;47.892;9.970;2023-02-15T13:30:38;12.00;71.20
35463;DHT22;21578;47.892;9.970;2023-02-15T13:35:40;12.00;71.80
35463;DHT22;21578;47.892;9.970;2023-02-15T13:40:32;11.90;72.40
35463;DHT22;21578;47.892;9.970;2023-02-15T13:45:39;12.00;71.90
35463;DHT22;21578;47.892;9.970;2023-02-15T13:50:43;11.90;72.10
35463;DHT22;21578;47.892;9.970;2023-02-15T13:55:40;12.10;72.20
35463;DHT22;21578;47.892;9.970;2023-02-15T14:00:38;12.20;71.80
35463;DHT22;21578;47.892;9.970;2023-02-15T14:05:39;12.30;71.90
35463;DHT22;21578;47.892;9.970;2023-02-15T14:10:37;12.40;72.10
35463;DHT22;21578;47.892;9.970;2023-02-15T14:15:32;12.50;72.40
35463;DHT22;21578;47.892;9.970;2023-02-15T14:20:29;12.40;72.40
35463;DHT22;21578;47.892;9.970;2023-02-15T14:25:20;12.50;72.30
35463;DHT22;21578;47.892;9.970;2023-02-15T14:30:18;12.50;71.70
35463;DHT22;21578;47.892;9.970;2023-02-15T14:35:12;12.40;71.80
35463;DHT22;21578;47.892;9.970;2023-02-15T14:40:05;12.50;71.90
35463;DHT22;21578;47.892;9.970;2023-02-15T14:45:20;12.40;70.30
35463;DHT22;21578;47.892;9.970;2023-02-15T14:50:40;12.50;72.30
35463;DHT22;21578;47.892;9.970;2023-02-15T14:55:36;12.40;70.70
35463;DHT22;21578;47.892;9.970;2023-02-15T15:00:34;12.30;71.80
35463;DHT22;21578;47.892;9.970;2023-02-15T15:05:27;12.20;71.50
35463;DHT22;21578;47.892;9.970;2023-02-15T15:10:39;12.10;70.70
35463;DHT22;21578;47.892;9.970;2023-02-15T15:15:38;11.90;70.70
35463;DHT22;21578;47.892;9.970;2023-02-15T15:20:47;12.00;71.90
35463;DHT22;21578;47.892;9.970;2023-02-15T15:25:43;11.80;72.60
35463;DHT22;21578;47.892;9.970;2023-02-15T15:31:02;11.70;74.10
35463;DHT22;21578;47.892;9.970;2023-02-15T15:36:05;11.60;74.10
35463;DHT22;21578;47.892;9.970;2023-02-15T15:41:16;11.60;75.50
35463;DHT22;21578;47.892;9.970;2023-02-15T15:46:13;11.60;75.00
35463;DHT22;21578;47.892;9.970;2023-02-15T15:51:04;11.30;76.50
35463;DHT22;21578;47.892;9.970;2023-02-15T15:55:56;11.10;77.30
35463;DHT22;21578;47.892;9.970;2023-02-15T16:00:47;11.00;77.50
35463;DHT22;21578;47.892;9.970;2023-02-15T16:05:37;10.80;78.80
35463;DHT22;21578;47.892;9.970;2023-02-15T16:10:25;10.60;78.60
35463;DHT22;21578;47.892;9.970;2023-02-15T16:15:15;10.40;78.80
35463;DHT22;21578;47.892;9.970;2023-02-15T16:20:13;10.20;80.10
35463;DHT22;21578;47.892;9.970;2023-02-15T16:25:24;10.10;80.90
35463;DHT22;21578;47.892;9.970;2023-02-15T16:30:33;9.80;82.80
35463;DHT22;21578;47.892;9.970;2023-02-15T16:35:22;9.60;84.80
35463;DHT22;21578;47.892;9.970;2023-02-15T16:40:27;9.30;85.60
35463;DHT22;21578;47.892;9.970;2023-02-15T16:45:18;9.00;86.60
35463;DHT22;21578;47.892;9.970;2023-02-15T16:50:06;8.80;87.00
35463;DHT22;21578;47.892;9.970;2023-02-15T16:55:05;8.50;87.20
35463;DHT22;21578;47.892;9.970;2023-02-15T16:59:55;8.30;86.80
35463;DHT22;21578;47.892;9.970;2023-02-15T17:04:44;8.10;86.70
35463;DHT22;21578;47.892;9.970;2023-02-15T17:09:33;8.00;87.60
35463;DHT22;21578;47.892;9.970;2023-02-15T17:14:21;7.90;88.00
35463;DHT22;21578;47.892;9.970;2023-02-15T17:19:15;7.80;88.00
35463;DHT22;21578;47.892;9.970;2023-02-15T17:24:04;7.60;88.30
35463;DHT22;21578;47.892;9.970;2023-02-15T17:28:52;7.50;88.60
35463;DHT22;21578;47.892;9.970;2023-02-15T17:33:42;7.20;89.30
35463;DHT22;21578;47.892;9.970;2023-02-15T17:38:29;7.00;90.10
35463;DHT22;21578;47.892;9.970;2023-02-15T17:43:16;6.90;90.60
35463;DHT22;21578;47.892;9.970;2023-02-15T17:48:04;6.80;90.90
35463;DHT22;21578;47.892;9.970;2023-02-15T17:52:55;6.70;91.50
35463;DHT22;21578;47.892;9.970;2023-02-15T17:57:43;6.60;92.10
35463;DHT22;21578;47.892;9.970;2023-02-15T18:02:33;6.40;91.90
35463;DHT22;21578;47.892;9.970;2023-02-15T18:07:38;6.20;93.00
35463;DHT22;21578;47.892;9.970;2023-02-15T18:12:44;6.00;93.40
35463;DHT22;21578;47.892;9.970;2023-02-15T18:17:33;5.80;94.10
35463;DHT22;21578;47.892;9.970;2023-02-15T18:22:20;5.70;95.10
35463;DHT22;21578;47.892;9.970;2023-02-15T18:27:07;5.60;95.40
35463;DHT22;21578;47.892;9.970;2023-02-15T18:31:59;5.50;95.80
35463;DHT22;21578;47.892;9.970;2023-02-15T18:36:46;5.40;96.60
35463;DHT22;21578;47.892;9.970;2023-02-15T18:41:34;5.40;96.60
35463;DHT22;21578;47.892;9.970;2023-02-15T18:46:21;5.30;96.60
35463;DHT22;21578;47.892;9.970;2023-02-15T18:51:16;5.30;96.60
35463;DHT22;21578;47.892;9.970;2023-02-15T18:56:04;5.20;96.60
35463;DHT22;21578;47.892;9.970;2023-02-15T19:00:51;5.20;96.60
35463;DHT22;21578;47.892;9.970;2023-02-15T19:05:41;5.20;96.60
35463;DHT22;21578;47.892;9.970;2023-02-15T19:10:31;5.10;96.60
35463;DHT22;21578;47.892;9.970;2023-02-15T19:15:20;5.00;96.60
35463;DHT22;21578;47.892;9.970;2023-02-15T19:20:13;4.80;96.60
35463;DHT22;21578;47.892;9.970;2023-02-15T19:25:02;4.60;96.60
35463;DHT22;21578;47.892;9.970;2023-02-15T19:29:52;4.50;96.60
35463;DHT22;21578;47.892;9.970;2023-02-15T19:34:39;4.40;96.60
35463;DHT22;21578;47.892;9.970;2023-02-15T19:39:28;4.30;96.60
35463;DHT22;21578;47.892;9.970;2023-02-15T19:44:15;4.20;96.60
35463;DHT22;21578;47.892;9.970;2023-02-15T19:49:04;4.20;96.60
35463;DHT22;21578;47.892;9.970;2023-02-15T19:53:51;4.00;96.60
35463;DHT22;21578;47.892;9.970;2023-02-15T19:58:38;3.90;96.60
35463;DHT22;21578;47.892;9.970;2023-02-15T20:03:25;3.80;96.60
35463;DHT22;21578;47.892;9.970;2023-02-15T20:08:16;3.70;96.60
35463;DHT22;21578;47.892;9.970;2023-02-15T20:13:03;3.70;96.60
35463;DHT22;21578;47.892;9.970;2023-02-15T20:17:50;3.70;96.60
35463;DHT22;21578;47.892;9.970;2023-02-15T20:22:37;3.60;96.60
35463;DHT22;21578;47.892;9.970;2023-02-15T20:27:27;3.60;96.60
35463;DHT22;21578;47.892;9.970;2023-02-15T20:32:14;3.60;96.60
35463;DHT22;21578;47.892;9.970;2023-02-15T20:37:01;3.60;96.60
35463;DHT22;21578;47.892;9.970;2023-02-15T20:41:48;3.60;96.60
35463;DHT22;21578;47.892;9.970;2023-02-15T20:46:36;3.40;96.60
35463;DHT22;21578;47.892;9.970;2023-02-15T20:51:23;3.30;96.60
35463;DHT22;21578;47.892;9.970;2023-02-15T20:56:15;3.20;96.60
35463;DHT22;21578;47.892;9.970;2023-02-15T21:01:08;3.20;96.60
35463;DHT22;21578;47.892;9.970;2023-02-15T21:05:58;3.30;96.60
35463;DHT22;21578;47.892;9.970;2023-02-15T21:10:46;3.30;96.60
35463;DHT22;21578;47.892;9.970;2023-02-15T21:15:34;3.40;96.60
35463;DHT22;21578;47.892;9.970;2023-02-15T21:20:21;3.50;96.60
35463;DHT22;21578;47.892;9.970;2023-02-15T21:25:13;3.50;96.60
35463;DHT22;21578;47.892;9.970;2023-02-15T21:30:00;3.70;96.00
35463;DHT22;21578;47.892;9.970;2023-02-15T21:34:47;3.40;96.60
35463;DHT22;21578;47.892;9.970;2023-02-15T21:39:34;3.20;96.60
35463;DHT22;21578;47.892;9.970;2023-02-15T21:44:24;3.20;96.60
35463;DHT22;21578;47.892;9.970;2023-02-15T21:49:28;3.10;96.60
35463;DHT22;21578;47.892;9.970;2023-02-15T21:54:17;3.10;96.60
35463;DHT22;21578;47.892;9.970;2023-02-15T21:59:08;2.90;96.60
35463;DHT22;21578;47.892;9.970;2023-02-15T22:03:57;2.80;96.60
35463;DHT22;21578;47.892;9.970;2023-02-15T22:08:45;2.70;96.60
35463;DHT22;21578;47.892;9.970;2023-02-15T22:13:33;2.60;96.60
35463;DHT22;21578;47.892;9.970;2023-02-15T22:18:22;2.50;96.60
35463;DHT22;21578;47.892;9.970;2023-02-15T22:23:10;2.40;96.60
35463;DHT22;21578;47.892;9.970;2023-02-15T22:27:57;2.30;96.60
35463;DHT22;21578;47.892;9.970;2023-02-15T22:32:44;2.30;96.60
35463;DHT22;21578;47.892;9.970;2023-02-15T22:37:31;2.20;96.60
35463;DHT22;21578;47.892;9.970;2023-02-15T22:42:22;2.00;96.60
35463;DHT22;21578;47.892;9.970;2023-02-15T22:47:15;1.90;96.60
35463;DHT22;21578;47.892;9.970;2023-02-15T22:52:08;1.90;96.60
35463;DHT22;21578;47.892;9.970;2023-02-15T22:56:57;1.90;96.60
35463;DHT22;21578;47.892;9.970;2023-02-15T23:01:47;1.90;96.60
35463;DHT22;21578;47.892;9.970;2023-02-15T23:06:34;1.80;96.60
35463;DHT22;21578;47.892;9.970;2023-02-15T23:11:21;1.80;96.60
35463;DHT22;21578;47.892;9.970;2023-02-15T23:16:13;1.80;96.60
35463;DHT22;21578;47.892;9.970;2023-02-15T23:21:03;1.80;96.60
35463;DHT22;21578;47.892;9.970;2023-02-15T23:25:52;1.80;96.60
35463;DHT22;21578;47.892;9.970;2023-02-15T23:30:38;2.00;96.60
35463;DHT22;21578;47.892;9.970;2023-02-15T23:35:25;1.90;96.60
35463;DHT22;21578;47.892;9.970;2023-02-15T23:40:15;1.90;96.60
35463;DHT22;21578;47.892;9.970;2023-02-15T23:45:21;1.90;96.60
35463;DHT22;21578;47.892;9.970;2023-02-15T23:50:15;1.90;96.60
35463;DHT22;21578;47.892;9.970;2023-02-15T23:55:02;1.90;96.60
35463;DHT22;21578;47.892;9.970;2023-02-15T23:59:51;1.90;96.60
